Time;durP1;ratioP1;P1;durP2;ratioP2;P2;SDS_P1;SDS_P2;PMS_P1;PMS_P2;Temp;Humidity;BMP_temperature;BMP_pressure;BME280_temperature;BME280_humidity;BME280_pressure;Samples;Min_cycle;Max_cycle;Signal;HPM_P1;HPM_P2
2024/01/30 00:01:52;;;;;;;11.93;8.83;;;;;;;4.05;99.33;102082.31;4993971;28;20584;-80
2024/01/30 00:04:18;;;;;;;12.07;9.30;;;;;;;4.05;100.00;102079.69;4999083;28;20230;-80
2024/01/30 00:06:46;;;;;;;11.03;8.90;;;;;;;4.05;100.00;102070.91;4996067;28;20208;-80
2024/01/30 00:09:13;;;;;;;10.37;8.93;;;;;;;4.02;100.00;102069.19;4998185;28;20575;-80
2024/01/30 00:11:40;;;;;;;10.97;8.23;;;;;;;4.00;100.00;102070.09;4998057;28;20272;-81
2024/01/30 00:14:06;;;;;;;11.03;8.30;;;;;;;3.96;100.00;102071.00;5001308;28;20272;-81
2024/01/30 00:16:34;;;;;;;10.43;8.17;;;;;;;3.92;99.80;102072.84;4998351;28;20847;-80
2024/01/30 00:19:02;;;;;;;10.63;8.40;;;;;;;3.90;100.00;102063.22;4995403;28;20814;-80
2024/01/30 00:21:28;;;;;;;12.30;8.50;;;;;;;3.90;100.00;102064.09;5002090;28;20261;-80
2024/01/30 00:23:56;;;;;;;11.67;8.90;;;;;;;3.89;100.00;102067.59;4992561;28;20234;-80
2024/01/30 00:26:22;;;;;;;11.13;8.93;;;;;;;3.90;100.00;102068.47;4996362;28;20222;-80
2024/01/30 00:28:49;;;;;;;10.10;8.50;;;;;;;3.95;100.00;102070.13;4995294;28;20215;-80
2024/01/30 00:31:15;;;;;;;11.20;8.57;;;;;;;3.96;100.00;102066.63;4997341;28;20218;-80
2024/01/30 00:33:42;;;;;;;11.67;9.40;;;;;;;4.01;100.00;102075.34;4998451;28;20714;-80
2024/01/30 00:36:10;;;;;;;12.60;8.73;;;;;;;4.10;100.00;102075.22;4997751;28;20214;-80
2024/01/30 00:38:37;;;;;;;12.17;8.97;;;;;;;4.17;100.00;102068.97;4999903;28;20211;-80
2024/01/30 00:41:05;;;;;;;10.60;8.27;;;;;;;4.23;100.00;102075.03;4998282;28;20208;-80
2024/01/30 00:43:32;;;;;;;10.57;9.00;;;;;;;4.25;100.00;102063.59;4989561;28;20251;-78
2024/01/30 00:45:58;;;;;;;12.23;8.33;;;;;;;4.26;100.00;102065.34;4998016;28;20227;-79
2024/01/30 00:48:25;;;;;;;13.60;8.93;;;;;;;4.21;100.00;102061.88;4999249;28;20257;-78
2024/01/30 00:50:51;;;;;;;10.07;8.23;;;;;;;4.20;100.00;102057.50;4994198;28;20215;-79
2024/01/30 00:53:18;;;;;;;11.57;8.27;;;;;;;4.18;100.00;102065.44;4996737;28;20231;-79
2024/01/30 00:55:44;;;;;;;11.70;8.33;;;;;;;4.17;100.00;102062.81;4999270;28;20204;-79
2024/01/30 00:58:12;;;;;;;9.73;7.63;;;;;;;4.12;100.00;102057.59;4997557;28;20216;-80
2024/01/30 01:00:39;;;;;;;11.43;8.60;;;;;;;4.07;100.00;102059.44;4997628;28;20207;-79
2024/01/30 01:03:06;;;;;;;12.77;9.73;;;;;;;4.04;100.00;102067.41;4994602;28;20208;-79
2024/01/30 01:05:32;;;;;;;13.93;9.33;;;;;;;3.99;100.00;102071.84;4997709;28;20200;-79
2024/01/30 01:07:59;;;;;;;11.47;8.53;;;;;;;3.96;100.00;102077.16;4995628;28;20595;-80
2024/01/30 01:10:25;;;;;;;11.80;9.70;;;;;;;3.92;100.00;102072.84;4996486;28;20660;-78
2024/01/30 01:12:52;;;;;;;11.50;8.80;;;;;;;3.88;100.00;102071.13;4996054;28;20212;-79
2024/01/30 01:15:19;;;;;;;12.50;8.97;;;;;;;3.84;100.00;102074.69;4998583;28;20616;-79
2024/01/30 01:17:46;;;;;;;11.37;9.20;;;;;;;3.81;100.00;102074.72;4994965;28;20689;-79
2024/01/30 01:20:13;;;;;;;13.47;8.93;;;;;;;3.79;100.00;102073.88;4998133;28;20587;-79
2024/01/30 01:22:40;;;;;;;12.70;9.53;;;;;;;3.78;100.00;102082.66;4998557;28;20246;-79
2024/01/30 01:25:08;;;;;;;13.10;8.97;;;;;;;3.76;100.00;102069.50;4994482;28;20715;-79
2024/01/30 01:27:40;;;;;;;11.20;9.07;;;;;;;3.76;100.00;102076.56;4997880;28;20612;-80
2024/01/30 01:30:09;;;;;;;11.53;8.40;;;;;;;3.74;100.00;102075.72;4998016;28;20258;-79
2024/01/30 01:32:38;;;;;;;15.30;8.57;;;;;;;3.74;100.00;102071.31;4996127;28;20203;-79
2024/01/30 01:35:06;;;;;;;13.10;8.97;;;;;;;3.73;100.00;102068.69;4993408;28;20231;-79
2024/01/30 01:37:32;;;;;;;12.63;9.60;;;;;;;3.73;100.00;102068.69;4996218;28;20211;-79
2024/01/30 01:39:59;;;;;;;13.67;9.67;;;;;;;3.75;100.00;102051.97;4996710;28;20223;-79
2024/01/30 01:42:25;;;;;;;10.67;8.60;;;;;;;3.76;100.00;102056.34;4998270;28;20203;-79
2024/01/30 01:44:52;;;;;;;10.13;8.40;;;;;;;3.73;100.00;102061.66;4997322;28;20219;-79
2024/01/30 01:47:18;;;;;;;10.20;8.47;;;;;;;3.72;100.00;102067.81;4994688;28;20233;-80
2024/01/30 01:49:46;;;;;;;16.03;8.83;;;;;;;3.72;100.00;102064.31;4995819;28;20207;-79
2024/01/30 01:52:13;;;;;;;14.07;8.87;;;;;;;3.71;100.00;102065.22;4999277;28;20203;-79
2024/01/30 01:54:39;;;;;;;12.70;8.53;;;;;;;3.70;100.00;102059.06;4997138;28;20234;-79
2024/01/30 01:57:06;;;;;;;11.50;8.83;;;;;;;3.70;100.00;102061.69;4999935;28;20211;-79
2024/01/30 01:59:33;;;;;;;12.33;8.50;;;;;;;3.72;100.00;102052.03;5001461;28;20582;-79
2024/01/30 02:02:00;;;;;;;14.77;9.33;;;;;;;3.75;100.00;102054.63;4996597;28;20208;-79
2024/01/30 02:04:27;;;;;;;12.33;9.63;;;;;;;3.78;100.00;102046.66;4997223;28;20215;-79
2024/01/30 02:06:55;;;;;;;13.83;9.60;;;;;;;3.82;100.00;102039.56;4998131;28;20328;-79
2024/01/30 02:09:21;;;;;;;12.10;9.10;;;;;;;3.86;100.00;102049.19;4998976;28;20217;-79
2024/01/30 02:11:47;;;;;;;14.37;10.30;;;;;;;3.96;100.00;102044.66;4995617;28;20647;-79
2024/01/30 02:14:14;;;;;;;14.50;9.50;;;;;;;3.99;100.00;102050.75;4997329;28;20235;-80
2024/01/30 02:16:40;;;;;;;13.13;10.53;;;;;;;4.03;100.00;102041.94;4999782;28;20214;-79
2024/01/30 02:19:07;;;;;;;13.97;10.10;;;;;;;4.04;100.00;102046.31;4994804;28;20210;-79
2024/01/30 02:21:35;;;;;;;14.07;9.70;;;;;;;4.03;100.00;102041.06;4997303;28;20218;-79
2024/01/30 02:24:03;;;;;;;13.97;9.40;;;;;;;4.02;100.00;102034.91;4996437;28;20240;-81
2024/01/30 02:26:30;;;;;;;14.43;10.27;;;;;;;4.01;100.00;102033.16;5000230;28;20211;-79
2024/01/30 02:28:56;;;;;;;11.63;9.03;;;;;;;4.02;100.00;102031.41;4993338;28;20204;-79
2024/01/30 02:31:24;;;;;;;10.87;8.97;;;;;;;4.02;100.00;102031.41;5004304;28;20211;-79
2024/01/30 02:33:50;;;;;;;14.07;10.33;;;;;;;4.03;100.00;102026.09;4997907;28;20223;-79
2024/01/30 02:36:17;;;;;;;14.33;10.13;;;;;;;4.07;100.00;102021.66;4999965;28;20211;-79
2024/01/30 02:38:46;;;;;;;12.57;9.20;;;;;;;4.08;100.00;102016.38;4996647;28;20214;-79
2024/01/30 02:41:12;;;;;;;11.80;9.37;;;;;;;4.09;100.00;102014.59;4998337;28;20245;-80
2024/01/30 02:43:39;;;;;;;13.20;9.30;;;;;;;4.08;100.00;102011.09;4995189;28;20231;-80
2024/01/30 02:46:05;;;;;;;12.43;9.17;;;;;;;4.11;100.00;102011.06;4998972;28;20222;-79
2024/01/30 02:48:32;;;;;;;13.63;9.97;;;;;;;4.15;100.00;102012.72;4998586;28;20295;-80
2024/01/30 02:50:58;;;;;;;12.53;8.77;;;;;;;4.16;100.00;102005.69;4993220;28;20214;-79
2024/01/30 02:53:25;;;;;;;12.40;8.73;;;;;;;4.16;100.00;102001.28;5001824;28;20203;-80
2024/01/30 02:55:53;;;;;;;10.30;8.30;;;;;;;4.18;100.00;101998.63;4996679;28;20204;-80
2024/01/30 02:58:19;;;;;;;13.37;9.30;;;;;;;4.21;100.00;101995.09;4998950;28;20622;-79
2024/01/30 03:00:45;;;;;;;11.97;8.77;;;;;;;4.22;100.00;101997.69;4998242;28;20198;-80
2024/01/30 03:03:12;;;;;;;11.03;8.40;;;;;;;4.25;100.00;102002.06;4998302;28;20231;-79
2024/01/30 03:05:38;;;;;;;11.53;8.60;;;;;;;4.25;100.00;102000.28;4996503;28;20200;-79
2024/01/30 03:08:06;;;;;;;11.40;8.67;;;;;;;4.24;100.00;101995.03;4999868;28;20269;-80
2024/01/30 03:10:32;;;;;;;11.47;8.47;;;;;;;4.22;100.00;101994.19;5003478;28;20566;-79
2024/01/30 03:13:00;;;;;;;10.33;7.43;;;;;;;4.21;100.00;101998.59;4995735;28;20907;-79
2024/01/30 03:15:26;;;;;;;12.83;8.40;;;;;;;4.20;100.00;101994.22;5003625;28;20573;-79
2024/01/30 03:17:54;;;;;;;10.20;8.00;;;;;;;4.18;100.00;101986.31;4996584;28;20404;-80
2024/01/30 03:20:20;;;;;;;11.50;7.93;;;;;;;4.18;100.00;101972.28;5001931;28;20211;-80
2024/01/30 03:22:47;;;;;;;10.23;7.80;;;;;;;4.19;100.00;101974.88;4995898;28;20208;-80
2024/01/30 03:25:13;;;;;;;10.23;7.53;;;;;;;4.22;100.00;101973.09;5000769;28;20226;-79
2024/01/30 03:27:40;;;;;;;10.27;8.30;;;;;;;4.25;100.00;101973.06;4999510;28;20211;-79
2024/01/30 03:30:09;;;;;;;10.97;7.90;;;;;;;4.26;100.00;101966.88;4998467;28;20204;-79
2024/01/30 03:32:36;;;;;;;12.60;7.53;;;;;;;4.28;100.00;101973.88;5000173;28;20794;-79
2024/01/30 03:35:02;;;;;;;12.13;7.87;;;;;;;4.30;100.00;101969.41;5005034;28;20232;-79
2024/01/30 03:37:28;;;;;;;9.37;7.70;;;;;;;4.32;100.00;101980.81;5009046;28;20639;-80
2024/01/30 03:39:55;;;;;;;11.43;7.57;;;;;;;4.33;100.00;101981.69;5004885;28;20821;-80
2024/01/30 03:42:22;;;;;;;11.47;8.37;;;;;;;4.32;100.00;101967.63;5000680;28;20215;-80
2024/01/30 03:44:51;;;;;;;9.37;7.97;;;;;;;4.33;100.00;101968.50;5001304;28;20314;-79
2024/01/30 03:47:19;;;;;;;9.30;8.30;;;;;;;4.32;100.00;101977.31;5007260;28;20207;-79
2024/01/30 03:49:46;;;;;;;11.90;7.77;;;;;;;4.31;100.00;101972.94;4994862;28;20223;-79
2024/01/30 03:52:12;;;;;;;11.60;8.17;;;;;;;4.31;100.00;101975.56;5001266;28;20222;-79
2024/01/30 03:54:39;;;;;;;9.60;7.60;;;;;;;4.29;100.00;101973.00;5005546;28;20223;-79
2024/01/30 03:57:05;;;;;;;9.73;7.47;;;;;;;4.29;100.00;101972.13;4995928;28;20595;-79
2024/01/30 03:59:32;;;;;;;9.93;8.30;;;;;;;4.27;100.00;101972.13;4995866;28;20216;-80
2024/01/30 04:01:58;;;;;;;11.80;8.17;;;;;;;4.27;100.00;101966.00;5000277;28;20207;-79
2024/01/30 04:04:26;;;;;;;11.53;7.90;;;;;;;4.24;100.00;101968.66;5001584;28;20238;-80
2024/01/30 04:06:53;;;;;;;10.80;8.73;;;;;;;4.22;100.00;101973.09;4994449;28;20219;-80
2024/01/30 04:09:19;;;;;;;11.63;8.60;;;;;;;4.19;100.00;101964.34;4994412;28;20215;-80
2024/01/30 04:11:46;;;;;;;10.17;8.03;;;;;;;4.17;100.00;101966.13;4998938;28;20261;-80
2024/01/30 04:14:12;;;;;;;13.67;9.10;;;;;;;4.14;100.00;101970.56;5001090;28;20242;-80
2024/01/30 04:16:39;;;;;;;10.37;7.60;;;;;;;4.11;100.00;101960.09;5000457;28;20240;-80
2024/01/30 04:19:05;;;;;;;9.77;7.90;;;;;;;4.08;100.00;101965.41;4995264;28;20220;-80
2024/01/30 04:21:33;;;;;;;10.30;8.10;;;;;;;4.04;100.00;101958.44;4999588;28;20212;-80
2024/01/30 04:23:59;;;;;;;10.27;7.87;;;;;;;4.01;100.00;101959.34;4995414;28;20608;-80
2024/01/30 04:26:26;;;;;;;9.63;7.53;;;;;;;3.98;100.00;101961.16;5000209;28;20546;-80
2024/01/30 04:28:52;;;;;;;11.03;8.60;;;;;;;3.95;100.00;101963.84;4999541;28;20725;-80
2024/01/30 04:31:19;;;;;;;9.03;7.93;;;;;;;3.92;100.00;101964.78;5003149;28;20237;-80
2024/01/30 04:33:45;;;;;;;11.60;9.13;;;;;;;3.92;100.00;101964.78;4995818;28;20246;-78
2024/01/30 04:36:12;;;;;;;13.83;8.50;;;;;;;3.90;100.00;101966.56;4999233;28;20359;-79
2024/01/30 04:38:40;;;;;;;10.80;8.63;;;;;;;3.87;100.00;101966.59;4999156;28;20549;-79
2024/01/30 04:41:06;;;;;;;14.03;8.27;;;;;;;3.85;100.00;101968.38;4998082;28;20215;-78
2024/01/30 04:43:32;;;;;;;14.30;9.00;;;;;;;3.84;100.00;101966.66;5001317;28;20232;-78
2024/01/30 04:45:59;;;;;;;10.57;8.07;;;;;;;3.82;100.00;101963.16;5002799;28;20207;-78
2024/01/30 04:48:25;;;;;;;13.30;8.60;;;;;;;3.79;100.00;101966.69;5001065;28;20207;-78
2024/01/30 04:50:57;;;;;;;11.73;8.00;;;;;;;3.77;100.00;101970.25;5001651;28;20211;-79
2024/01/30 04:53:24;;;;;;;10.23;7.90;;;;;;;3.73;100.00;101973.84;5000264;28;20195;-80
2024/01/30 04:55:52;;;;;;;13.17;8.60;;;;;;;3.70;100.00;101972.13;5002034;28;20222;-79
2024/01/30 04:58:18;;;;;;;12.43;8.20;;;;;;;3.67;100.00;101974.78;5001044;28;20203;-79
2024/01/30 05:00:45;;;;;;;10.60;8.87;;;;;;;3.65;100.00;101970.44;5000476;28;20206;-79
2024/01/30 05:03:12;;;;;;;14.30;10.00;;;;;;;3.62;100.00;101973.09;4999926;28;20218;-80
2024/01/30 05:05:38;;;;;;;13.87;9.13;;;;;;;3.60;100.00;101975.75;4999026;28;20207;-79
2024/01/30 05:08:05;;;;;;;14.70;9.23;;;;;;;3.57;100.00;101973.19;5001038;28;20211;-79
2024/01/30 05:10:32;;;;;;;12.00;8.77;;;;;;;3.54;100.00;101970.59;4996265;28;20208;-79
2024/01/30 05:12:59;;;;;;;11.37;9.13;;;;;;;3.51;100.00;101970.63;4998260;28;20207;-79
2024/01/30 05:15:26;;;;;;;12.10;9.23;;;;;;;3.48;100.00;101973.28;4995994;28;20238;-78
2024/01/30 05:17:52;;;;;;;13.80;9.37;;;;;;;3.44;100.00;101964.56;4997360;28;20204;-79
2024/01/30 05:20:20;;;;;;;11.40;9.60;;;;;;;3.41;100.00;101961.97;4995875;28;20215;-79
2024/01/30 05:22:47;;;;;;;12.33;8.80;;;;;;;3.38;100.00;101967.28;5000044;28;20301;-78
2024/01/30 05:25:14;;;;;;;12.53;8.67;;;;;;;3.35;100.00;101969.09;4993162;28;20231;-79
2024/01/30 05:27:40;;;;;;;12.77;9.07;;;;;;;3.33;100.00;101966.47;4992803;28;20207;-78
2024/01/30 05:30:09;;;;;;;13.87;10.03;;;;;;;3.31;100.00;101965.59;4991582;28;20596;-79
2024/01/30 05:32:36;;;;;;;13.43;10.00;;;;;;;3.31;100.00;101960.34;4999195;28;20207;-79
2024/01/30 05:35:02;;;;;;;12.40;8.77;;;;;;;3.32;100.00;101962.09;4992062;28;20243;-79
2024/01/30 05:37:29;;;;;;;11.80;9.03;;;;;;;3.28;100.00;101962.13;5002018;28;20294;-78
2024/01/30 05:39:55;;;;;;;13.13;9.00;;;;;;;3.24;100.00;101953.41;4994664;28;20207;-78
2024/01/30 05:42:22;;;;;;;13.50;9.43;;;;;;;3.23;100.00;101956.03;5000612;28;20222;-79
2024/01/30 05:44:48;;;;;;;12.67;9.27;;;;;;;3.22;100.00;101955.22;5001031;28;20226;-79
2024/01/30 05:47:16;;;;;;;12.40;9.33;;;;;;;3.21;100.00;101966.63;4994604;28;21150;-79
2024/01/30 05:49:43;;;;;;;13.67;9.60;;;;;;;3.24;100.00;101955.16;5002037;28;20207;-79
2024/01/30 05:52:09;;;;;;;14.00;10.23;;;;;;;3.27;100.00;101958.63;5002711;28;20207;-81
2024/01/30 05:54:36;;;;;;;13.27;9.93;;;;;;;3.30;100.00;101963.88;4998163;28;20242;-79
2024/01/30 05:57:03;;;;;;;14.23;9.97;;;;;;;3.33;100.00;101961.19;5001373;28;20212;-79
2024/01/30 05:59:29;;;;;;;15.07;10.23;;;;;;;3.31;100.00;101960.34;4995982;28;20572;-79
2024/01/30 06:01:55;;;;;;;14.20;10.33;;;;;;;3.30;100.00;101961.22;4998814;28;20199;-80
2024/01/30 06:04:24;;;;;;;11.67;9.03;;;;;;;3.28;100.00;101963.00;4997527;28;20239;-79
2024/01/30 06:06:50;;;;;;;13.73;9.50;;;;;;;3.28;100.00;101973.53;4992406;28;20211;-80
2024/01/30 06:09:16;;;;;;;15.30;9.07;;;;;;;3.27;100.00;101969.16;5003711;28;20210;-80
2024/01/30 06:11:43;;;;;;;12.47;9.40;;;;;;;3.23;100.00;101962.19;4994710;28;20207;-80
2024/01/30 06:14:09;;;;;;;12.80;9.27;;;;;;;3.24;100.00;101960.41;4998055;28;20228;-80
2024/01/30 06:16:36;;;;;;;13.27;9.93;;;;;;;3.20;100.00;101966.66;4985015;28;20223;-79
2024/01/30 06:19:02;;;;;;;13.73;9.53;;;;;;;3.19;100.00;101970.16;4989364;28;20562;-82
2024/01/30 06:21:30;;;;;;;13.73;9.63;;;;;;;3.19;100.00;101965.78;4996150;28;20583;-80
2024/01/30 06:23:57;;;;;;;11.67;9.63;;;;;;;3.19;100.00;101964.91;4989165;28;20248;-79
2024/01/30 06:26:23;;;;;;;16.57;10.40;;;;;;;3.15;100.00;101958.78;4995078;28;20207;-79
2024/01/30 06:28:49;;;;;;;13.67;9.83;;;;;;;3.16;100.00;101963.16;4994970;28;20207;-79
2024/01/30 06:31:16;;;;;;;16.70;9.93;;;;;;;3.17;100.00;101958.78;4994855;28;20207;-79
2024/01/30 06:33:42;;;;;;;14.90;9.90;;;;;;;3.18;100.00;101958.75;4994438;28;20228;-79
2024/01/30 06:36:09;;;;;;;14.57;9.77;;;;;;;3.21;100.00;101952.59;4991352;28;20247;-79
2024/01/30 06:38:37;;;;;;;12.43;10.03;;;;;;;3.23;100.00;101951.66;4994530;28;20214;-79
2024/01/30 06:41:04;;;;;;;11.60;8.90;;;;;;;3.25;100.00;101949.00;4985415;28;20724;-79
2024/01/30 06:43:31;;;;;;;11.57;8.57;;;;;;;3.26;100.00;101940.22;4996115;28;20648;-79
2024/01/30 06:45:57;;;;;;;12.90;9.30;;;;;;;3.26;100.00;101938.47;4992134;28;20644;-80
2024/01/30 06:48:24;;;;;;;13.13;8.97;;;;;;;3.26;100.00;101941.09;4992337;28;20576;-79
2024/01/30 06:50:51;;;;;;;13.03;9.03;;;;;;;3.25;100.00;101939.34;4995596;28;20210;-79
2024/01/30 06:53:17;;;;;;;10.73;8.50;;;;;;;3.24;100.00;101934.09;4994991;28;20584;-79
2024/01/30 06:55:45;;;;;;;12.50;8.50;;;;;;;3.22;100.00;101936.78;4996398;28;20262;-80
2024/01/30 06:58:12;;;;;;;11.33;8.37;;;;;;;3.18;100.00;101935.06;4990085;28;20202;-79
2024/01/30 07:00:38;;;;;;;10.73;8.33;;;;;;;3.17;100.00;101942.97;5001036;28;20203;-79
2024/01/30 07:03:06;;;;;;;10.67;8.27;;;;;;;3.14;100.00;101936.84;4997124;28;20606;-80
2024/01/30 07:05:33;;;;;;;13.80;8.70;;;;;;;3.13;100.00;101937.75;4994502;28;20229;-80
2024/01/30 07:07:59;;;;;;;14.00;9.47;;;;;;;3.12;100.00;101935.13;4995219;28;20598;-80
2024/01/30 07:10:25;;;;;;;11.13;8.93;;;;;;;3.19;100.00;101933.31;4994949;28;20302;-80
2024/01/30 07:12:53;;;;;;;13.17;9.17;;;;;;;3.29;100.00;101940.19;4988134;28;20210;-80
2024/01/30 07:15:20;;;;;;;12.07;9.57;;;;;;;3.35;100.00;101930.47;4997044;28;20285;-79
2024/01/30 07:17:47;;;;;;;14.40;8.97;;;;;;;3.40;100.00;101928.59;4994906;28;20204;-79
2024/01/30 07:20:13;;;;;;;12.57;9.07;;;;;;;3.46;100.00;101935.56;4989245;28;20665;-80
2024/01/30 07:22:40;;;;;;;11.83;9.40;;;;;;;3.54;100.00;101931.06;4994268;28;20211;-80
2024/01/30 07:25:08;;;;;;;11.87;8.73;;;;;;;3.62;100.00;101930.94;4997743;28;20629;-80
2024/01/30 07:27:34;;;;;;;12.60;9.50;;;;;;;3.65;100.00;101938.81;4995239;28;20215;-79
2024/01/30 07:30:02;;;;;;;12.87;9.80;;;;;;;3.72;100.00;101936.09;4991081;28;20607;-80
2024/01/30 07:32:28;;;;;;;13.23;9.80;;;;;;;3.76;100.00;101937.75;4992850;28;20215;-80
2024/01/30 07:34:55;;;;;;;10.23;8.37;;;;;;;3.81;100.00;101925.41;4990479;28;20231;-80
2024/01/30 07:37:21;;;;;;;11.43;8.93;;;;;;;3.86;100.00;101935.88;4994637;28;20573;-80
2024/01/30 07:39:48;;;;;;;13.93;8.90;;;;;;;3.89;100.00;101941.09;4994828;28;20688;-80
2024/01/30 07:42:14;;;;;;;12.70;9.83;;;;;;;3.93;100.00;101934.91;4991006;28;20207;-80
2024/01/30 07:44:41;;;;;;;11.67;8.80;;;;;;;3.97;100.00;101935.69;4987310;28;20235;-80
2024/01/30 07:47:08;;;;;;;10.87;8.47;;;;;;;3.99;100.00;101936.53;5001247;28;20207;-80
2024/01/30 07:49:35;;;;;;;10.37;8.40;;;;;;;4.01;100.00;101933.00;4990699;28;20768;-80
2024/01/30 07:52:02;;;;;;;13.10;9.83;;;;;;;4.03;100.00;101936.47;4996759;28;20570;-80
2024/01/30 07:54:33;;;;;;;10.43;8.10;;;;;;;4.06;100.00;101932.94;4993160;28;20239;-80
2024/01/30 07:56:59;;;;;;;12.60;8.73;;;;;;;4.08;100.00;101937.28;4990998;28;20226;-80
2024/01/30 07:59:26;;;;;;;10.33;8.57;;;;;;;4.09;100.00;101933.75;4995855;28;20211;-79
2024/01/30 08:01:52;;;;;;;13.70;8.97;;;;;;;4.12;100.00;101938.13;4988652;28;20204;-80
2024/01/30 08:04:20;;;;;;;10.93;8.33;;;;;;;4.14;100.00;101936.28;4994293;28;20226;-80
2024/01/30 08:06:46;;;;;;;9.23;8.03;;;;;;;4.14;100.00;101936.28;4993661;28;20204;-80
2024/01/30 08:09:13;;;;;;;13.97;9.80;;;;;;;4.13;100.00;101937.19;4992578;28;20215;-80
2024/01/30 08:11:39;;;;;;;13.00;9.03;;;;;;;4.14;100.00;101941.56;4997354;28;20655;-80
2024/01/30 08:14:06;;;;;;;12.33;8.83;;;;;;;4.13;100.00;101940.69;4996891;28;20599;-80
2024/01/30 08:16:32;;;;;;;10.93;9.10;;;;;;;4.16;100.00;101935.38;4994814;28;20609;-80
2024/01/30 08:18:59;;;;;;;13.70;8.63;;;;;;;4.17;100.00;101939.75;4990353;28;20206;-80
2024/01/30 08:21:27;;;;;;;12.53;10.03;;;;;;;4.21;100.00;101937.06;4998934;28;20302;-80
2024/01/30 08:23:54;;;;;;;12.37;8.73;;;;;;;4.22;100.00;101936.19;4993092;28;20231;-80
2024/01/30 08:26:20;;;;;;;13.03;9.37;;;;;;;4.23;100.00;101938.78;4999186;28;20280;-80
2024/01/30 08:28:46;;;;;;;12.80;9.33;;;;;;;4.25;100.00;101934.38;4997575;28;20218;-80
2024/01/30 08:31:13;;;;;;;15.60;9.37;;;;;;;4.28;100.00;101934.31;4993021;28;20254;-80
2024/01/30 08:33:39;;;;;;;10.13;8.47;;;;;;;4.30;100.00;101927.22;4993991;28;20223;-80
2024/01/30 08:36:06;;;;;;;12.60;9.77;;;;;;;4.32;100.00;101922.81;4995495;28;20695;-80
2024/01/30 08:38:34;;;;;;;11.33;9.57;;;;;;;4.36;100.00;101921.84;4996818;28;20215;-80
2024/01/30 08:41:01;;;;;;;14.27;9.30;;;;;;;4.39;100.00;101918.31;4993608;28;20215;-79
2024/01/30 08:43:27;;;;;;;13.47;9.40;;;;;;;4.42;100.00;101919.13;5002187;28;20203;-80
2024/01/30 08:45:53;;;;;;;11.37;9.93;;;;;;;4.44;100.00;101917.34;4989799;28;20200;-80
2024/01/30 08:48:21;;;;;;;15.03;10.03;;;;;;;4.49;100.00;101919.88;4997006;28;20207;-80
2024/01/30 08:50:47;;;;;;;13.17;9.67;;;;;;;4.51;100.00;101918.94;4993467;28;20671;-79
2024/01/30 08:53:14;;;;;;;12.00;8.97;;;;;;;4.55;100.00;101917.13;4986815;28;20203;-80
2024/01/30 08:55:42;;;;;;;13.07;9.30;;;;;;;4.63;100.00;101923.16;4988723;28;20619;-79
2024/01/30 08:58:08;;;;;;;13.90;9.63;;;;;;;4.72;100.00;101922.97;4995300;28;20208;-81
2024/01/30 09:00:35;;;;;;;11.70;9.17;;;;;;;4.79;100.00;101916.69;4994460;28;20581;-81
2024/01/30 09:03:01;;;;;;;12.73;8.57;;;;;;;4.88;100.00;101927.03;4992855;28;20203;-79
2024/01/30 09:05:27;;;;;;;11.87;8.60;;;;;;;4.97;100.00;101923.38;4988025;28;20224;-81
2024/01/30 09:07:54;;;;;;;14.00;8.57;;;;;;;5.05;100.00;101925.81;4986107;28;20208;-81
2024/01/30 09:10:21;;;;;;;11.93;8.93;;;;;;;5.10;100.00;101926.63;5001010;28;20218;-79
2024/01/30 09:12:49;;;;;;;10.30;8.43;;;;;;;5.17;100.00;101921.19;4995119;28;20239;-79
2024/01/30 09:15:15;;;;;;;13.17;7.83;;;;;;;5.28;100.00;101926.22;4996699;28;20227;-81
2024/01/30 09:17:42;;;;;;;11.30;8.00;;;;;;;5.39;100.00;101926.88;4987179;28;20618;-77
2024/01/30 09:20:10;;;;;;;11.50;8.57;;;;;;;5.48;100.00;101921.41;4990012;28;20227;-80
2024/01/30 09:22:36;;;;;;;12.67;8.40;;;;;;;5.56;100.00;101921.22;4995493;28;20215;-80
2024/01/30 09:25:03;;;;;;;10.80;8.07;;;;;;;5.65;100.00;101926.31;4989276;28;20228;-80
2024/01/30 09:27:29;;;;;;;11.17;8.37;;;;;;;5.73;100.00;101926.97;4991651;28;20581;-80
2024/01/30 09:29:57;;;;;;;10.40;7.63;;;;;;;5.81;100.00;101911.81;4993530;28;20555;-80
2024/01/30 09:32:23;;;;;;;11.27;8.10;;;;;;;5.94;100.00;101920.34;4992850;28;20215;-80
2024/01/30 09:34:50;;;;;;;10.30;7.90;;;;;;;6.00;100.00;101916.69;4989715;28;20228;-81
2024/01/30 09:37:17;;;;;;;13.03;8.17;;;;;;;6.07;100.00;101911.25;4995507;28;20235;-81
2024/01/30 09:39:44;;;;;;;10.53;7.97;;;;;;;6.10;100.00;101916.44;4988595;28;20588;-81
2024/01/30 09:42:18;;;;;;;11.33;8.10;;;;;;;6.17;100.00;101917.16;4991862;28;20207;-80
2024/01/30 09:44:47;;;;;;;11.13;8.00;;;;;;;6.26;99.03;101915.16;4994600;28;20710;-81
2024/01/30 09:47:17;;;;;;;10.37;7.63;;;;;;;6.31;98.75;101904.44;4996203;28;20688;-81
2024/01/30 09:49:44;;;;;;;11.07;8.23;;;;;;;6.39;98.67;101898.97;4995405;28;20216;-81
2024/01/30 09:52:12;;;;;;;8.60;7.33;;;;;;;6.47;98.17;101899.63;4995356;28;20657;-81
2024/01/30 09:54:39;;;;;;;11.07;7.83;;;;;;;6.57;97.22;101895.84;4991238;28;20227;-81
2024/01/30 09:57:07;;;;;;;10.97;7.47;;;;;;;6.62;96.28;101899.22;4991694;28;20232;-82
2024/01/30 09:59:34;;;;;;;10.10;7.27;;;;;;;6.66;95.76;101900.88;4994065;28;20207;-81
2024/01/30 10:02:04;;;;;;;9.73;7.23;;;;;;;6.74;95.11;101900.66;4993582;28;20599;-81
2024/01/30 10:04:31;;;;;;;12.80;7.97;;;;;;;6.80;94.52;101893.44;4995988;28;20226;-81
2024/01/30 10:06:58;;;;;;;9.60;7.23;;;;;;;6.87;95.07;101902.06;4994381;28;20207;-81
2024/01/30 10:09:25;;;;;;;7.97;6.97;;;;;;;6.89;94.41;101914.34;4993893;28;20214;-81
2024/01/30 10:11:52;;;;;;;9.53;7.70;;;;;;;6.90;95.29;101910.78;4987751;28;20203;-81
2024/01/30 10:14:18;;;;;;;8.03;7.20;;;;;;;6.95;95.30;101919.47;4998717;28;20249;-81
2024/01/30 10:16:46;;;;;;;11.07;7.93;;;;;;;7.00;94.47;101913.16;4988058;28;20230;-82
2024/01/30 10:19:13;;;;;;;8.63;7.47;;;;;;;7.11;92.40;101914.59;4996255;28;20211;-81
2024/01/30 10:21:41;;;;;;;7.93;6.73;;;;;;;7.14;92.58;101913.66;4991626;28;20215;-81
2024/01/30 10:24:08;;;;;;;9.33;7.30;;;;;;;7.16;92.95;101912.72;4992090;28;20929;-81
2024/01/30 10:26:34;;;;;;;8.63;7.03;;;;;;;7.19;91.87;101917.00;4994277;28;20680;-81
2024/01/30 10:29:01;;;;;;;10.60;6.87;;;;;;;7.25;91.93;101907.13;4996620;28;20289;-81
2024/01/30 10:31:27;;;;;;;10.17;6.67;;;;;;;7.32;90.78;101903.38;4995788;28;20298;-81
2024/01/30 10:33:54;;;;;;;10.10;7.20;;;;;;;7.39;90.44;101898.75;4990674;28;20332;-81
2024/01/30 10:36:28;;;;;;;8.93;6.90;;;;;;;7.44;90.23;101898.63;4993400;28;20226;-81
2024/01/30 10:39:00;;;;;;;8.50;7.33;;;;;;;7.48;90.60;101897.63;4990622;28;20203;-81
2024/01/30 10:41:28;;;;;;;9.00;6.37;;;;;;;7.54;90.41;101895.63;4992810;28;20211;-83
2024/01/30 10:44:03;;;;;;;8.40;6.37;;;;;;;7.61;89.90;101877.75;4994199;28;20587;-82
2024/01/30 10:46:33;;;;;;;10.67;7.70;;;;;;;7.70;89.07;101879.25;4989846;28;20199;-83
2024/01/30 10:49:00;;;;;;;9.47;7.47;;;;;;;7.75;88.93;101880.81;4993743;28;20207;-82
2024/01/30 10:51:27;;;;;;;9.10;7.10;;;;;;;7.88;88.12;101890.13;4995151;28;20214;-82
2024/01/30 10:53:54;;;;;;;10.10;6.67;;;;;;;7.96;87.34;101873.97;4992067;28;20228;-82
2024/01/30 10:56:23;;;;;;;10.07;7.17;;;;;;;8.00;86.56;101863.22;4995526;28;20223;-83
2024/01/30 10:58:51;;;;;;;8.70;7.47;;;;;;;8.04;86.47;101871.06;4993880;28;20203;-82
2024/01/30 11:01:19;;;;;;;9.20;6.60;;;;;;;8.09;85.81;101863.81;4998131;28;20225;-82
2024/01/30 11:03:46;;;;;;;10.60;8.90;;;;;;;8.12;86.32;101861.91;4992969;28;20594;-82
2024/01/30 11:06:13;;;;;;;8.57;7.17;;;;;;;8.14;86.67;101861.88;4995042;28;20619;-82
2024/01/30 11:08:40;;;;;;;10.90;7.67;;;;;;;8.16;86.28;101865.34;4996301;28;20676;-83
2024/01/30 11:11:27;;;;;;;9.63;7.23;;;;;;;8.21;86.10;101853.66;4993325;28;20203;-82
2024/01/30 11:13:55;;;;;;;10.50;7.33;;;;;;;8.27;86.42;101858.72;4984304;28;20228;-82
2024/01/30 11:16:22;;;;;;;7.90;6.70;;;;;;;8.31;85.91;101844.44;4995155;28;20234;-83
2024/01/30 11:18:51;;;;;;;8.80;6.60;;;;;;;8.42;85.70;101849.41;4986871;28;20200;-83